Flight Track Log - Related Links

Times and Time Zones

All times are in EDT time to prevent confusion due to time zone crossing. See the EGF4016 flight status page for this flight to view local times or setup timezone preferences in your user account.

Time Position Orientation Groundspeed Altitude Reporting Facility
EDT Latitude Longitude Course Direction KTS MPH feet Rate Location/Type
Tue 08:00:09 AM 42.5317 -92.3508 90° East 192 221 2,500  Level Chicago Center
Tue 08:01:10 AM 42.5194 -92.2736 102° East 227 261 4,500 1,707 Climbing Chicago Center
Tue 08:02:12 AM 42.5142 -92.1769 94° East 244 281 6,000 1,742 Climbing Chicago Center
Tue 08:03:00 AM 42.5028 -91.8995 96° East  Level FlightAware Approximate
Tue 08:03:14 AM 42.5067 -92.0686 95° East 272 313 8,100  Level Chicago Center
Tue 08:04:00 AM 42.4916 -91.7740 97° East  Level FlightAware Approximate
Tue 08:04:16 AM 42.4828 -91.9611 107° East 304 350 10,000  Level Chicago Center
Tue 08:05:00 AM 42.4833 -91.6513 90° East  Level FlightAware Approximate
Tue 08:05:18 AM 42.4444 -91.8278 111° Southeast 321 369 11,600  Level Chicago Center
Tue 08:06:20 AM 42.4097 -91.7036 111° Southeast 354 407 12,800 1,268 Climbing Chicago Center
Tue 08:07:21 AM 42.4022 -91.5714 94° East 362 417 14,200 1,415 Climbing Chicago Center
Tue 08:08:23 AM 42.4164 -91.4319 82° East 378 435 15,700 919 Climbing Chicago Center
Tue 08:09:25 AM 42.4258 -91.2903 85° East 384 442 16,100 194 Climbing Chicago Center
Tue 08:10:27 AM 42.4383 -91.0994 85° East 426 490 16,100 -48 Level Chicago Center
Tue 08:11:29 AM 42.4497 -90.9369 85° East 437 503 16,000 49 Descending Chicago Center
Tue 08:12:30 AM 42.4597 -90.7742 85° East 438 504 16,200 829 Climbing Chicago Center
Tue 08:13:32 AM 42.4700 -90.6161 85° East 430 495 17,700 1,597 Climbing Chicago Center
Tue 08:14:34 AM 42.4806 -90.4311 86° East 417 480 19,500 1,548 Climbing Chicago Center
Tue 08:15:36 AM 42.4894 -90.2775 85° East 415 478 20,900 726 Climbing Chicago Center
Tue 08:16:38 AM 42.4756 -90.1169 97° East 433 498 21,000 48 Climbing Chicago Center
Tue 08:17:40 AM 42.4650 -89.9450 95° East 460 529 21,000  Level Chicago Center
Tue 08:18:42 AM 42.4550 -89.7503 94° East 468 539 21,000  Level Chicago Center
Tue 08:19:44 AM 42.4442 -89.5758 95° East 466 536 21,000  Level Chicago Center
Tue 08:20:46 AM 42.4325 -89.3997 95° East 468 539 21,000 -435 Level Chicago Center
Tue 08:21:48 AM 42.4231 -89.2258 94° East 465 535 20,100 -1,854 Descending Chicago Center
Tue 08:22:49 AM 42.4086 -89.0286 96° East 454 522 17,200 -2,683 Descending Chicago Center
Tue 08:23:51 AM 42.3986 -88.8650 95° East 441 507 14,600 -2,516 Descending Chicago Center
Tue 08:24:53 AM 42.3886 -88.7053 95° East 430 495 12,000 -2,177 Descending Chicago Center
Tue 08:25:55 AM 42.3781 -88.5561 95° East 409 471 10,100 -968 Descending Chicago Center
Tue 08:26:57 AM 42.3519 -88.4158 104° East 396 456 10,000 -48 Descending Chicago Center
Tue 08:27:59 AM 42.2892 -88.2997 126° Southeast 388 447 10,000  Level Chicago Center
Tue 08:29:01 AM 42.2189 -88.1878 130° Southeast 390 449 10,000 -240 Level Chicago Center
Tue 08:30:04 AM 42.1364 -88.0781 135° Southeast 354 407 9,500 -795 Descending Chicago Center
Tue 08:30:24 AM 42.1167 -88.0500 133° Southeast 316 364 8,900 -1,500 Descending Chicago TRACON
Tue 08:31:24 AM 42.0833 -87.9333 111° Southeast 312 359 7,500 -1,150 Descending Chicago TRACON
Tue 08:32:24 AM 42.0833 -87.8500 90° East 270 311 6,600 -792 Descending Chicago TRACON
Tue 08:33:10 AM 42.0906 -87.7869 81° East 258 297 6,100 -652 Descending Chicago Center

Login

Don't have an account? Register now (free) for customized features, flight alerts, and more!